createdAt,value
2022-12-11T00:00:04.974Z,36.00
2022-12-11T00:02:31.415Z,37.13
2022-12-11T00:04:57.958Z,36.75
2022-12-11T00:07:24.421Z,39.35
2022-12-11T00:09:50.792Z,38.05
2022-12-11T00:12:17.191Z,38.33
2022-12-11T00:14:43.563Z,40.45
2022-12-11T00:17:10.227Z,39.55
2022-12-11T00:19:36.644Z,39.85
2022-12-11T00:22:03.236Z,41.13
2022-12-11T00:24:29.627Z,40.38
2022-12-11T00:26:56.015Z,39.88
2022-12-11T00:29:22.376Z,39.55
2022-12-11T00:31:48.768Z,38.63
2022-12-11T00:34:15.226Z,38.55
2022-12-11T00:36:41.647Z,38.78
2022-12-11T00:39:08.088Z,38.55
2022-12-11T00:41:34.463Z,38.50
2022-12-11T00:44:00.837Z,37.60
2022-12-11T00:46:27.233Z,37.78
2022-12-11T00:48:53.632Z,39.05
2022-12-11T00:51:20.175Z,38.45
2022-12-11T00:53:46.605Z,38.92
2022-12-11T00:56:14.703Z,38.33
2022-12-11T01:01:11.649Z,30.45
2022-12-11T01:03:38.169Z,31.73
2022-12-11T01:06:05.359Z,33.20
2022-12-11T01:08:35.430Z,30.57
2022-12-11T01:11:09.706Z,30.20
2022-12-11T01:13:36.720Z,29.23
2022-12-11T01:16:07.168Z,30.63
2022-12-11T01:18:33.589Z,26.05
2022-12-11T01:20:59.947Z,27.55
2022-12-11T01:23:26.317Z,26.13
2022-12-11T01:25:52.689Z,25.55
2022-12-11T01:28:19.057Z,23.60
2022-12-11T01:30:45.467Z,23.83
2022-12-11T01:33:11.938Z,31.30
2022-12-11T01:35:38.880Z,31.48
2022-12-11T01:38:05.231Z,32.40
2022-12-11T01:40:31.613Z,28.42
2022-12-11T01:42:58.000Z,28.67
2022-12-11T01:45:30.396Z,25.58
2022-12-11T01:47:59.999Z,22.90
2022-12-11T01:50:27.620Z,22.83
2022-12-11T01:52:54.011Z,24.95
2022-12-11T01:55:20.676Z,25.23
2022-12-11T01:57:49.019Z,22.10
2022-12-11T02:00:15.770Z,21.23
2022-12-11T02:02:42.299Z,24.27
2022-12-11T02:05:09.438Z,24.42
2022-12-11T02:07:41.381Z,23.37
2022-12-11T02:10:08.467Z,22.70
2022-12-11T02:12:53.843Z,21.70
2022-12-11T02:15:25.279Z,22.13
2022-12-11T02:18:00.306Z,22.20
2022-12-11T02:20:26.632Z,22.17
2022-12-11T02:22:53.003Z,21.55
2022-12-11T02:25:36.937Z,22.55
2022-12-11T02:28:06.189Z,22.25
2022-12-11T02:30:33.452Z,21.30
2022-12-11T02:32:59.876Z,22.10
2022-12-11T02:35:28.327Z,22.17
2022-12-11T02:37:57.846Z,21.85
2022-12-11T02:40:26.763Z,20.83
2022-12-11T02:42:54.399Z,20.85
2022-12-11T02:45:21.796Z,23.27
2022-12-11T02:47:48.884Z,22.38
2022-12-11T02:50:16.984Z,21.38
2022-12-11T02:55:11.234Z,22.58
2022-12-11T02:57:46.840Z,21.25
2022-12-11T03:00:13.725Z,19.95
2022-12-11T03:02:40.637Z,19.90
2022-12-11T03:05:07.471Z,19.67
2022-12-11T03:07:35.136Z,19.58
2022-12-11T03:10:01.492Z,18.83
2022-12-11T03:12:29.536Z,17.38
2022-12-11T03:17:23.521Z,17.05
2022-12-11T03:19:53.546Z,17.83
2022-12-11T03:22:25.832Z,17.17
2022-12-11T03:24:55.167Z,18.42
2022-12-11T03:27:24.636Z,17.63
2022-12-11T03:29:55.706Z,15.75
2022-12-11T03:32:24.523Z,15.98
2022-12-11T03:35:00.936Z,15.63
2022-12-11T03:37:28.908Z,14.80
2022-12-11T03:39:59.220Z,16.30
2022-12-11T03:42:26.808Z,15.63
2022-12-11T03:44:54.635Z,15.45
2022-12-11T03:47:22.675Z,14.90
2022-12-11T03:49:49.739Z,14.82
2022-12-11T03:52:16.947Z,16.30
2022-12-11T03:54:45.832Z,16.30
2022-12-11T03:57:14.051Z,16.65
2022-12-11T03:59:40.470Z,16.30
2022-12-11T04:02:11.033Z,17.15
2022-12-11T04:04:38.209Z,16.38
2022-12-11T04:07:04.604Z,15.02
2022-12-11T04:09:30.963Z,15.52
2022-12-11T04:11:57.361Z,15.20
2022-12-11T04:14:42.188Z,15.10
2022-12-11T04:17:08.593Z,15.30
2022-12-11T04:19:53.415Z,14.90
2022-12-11T04:22:38.318Z,15.07
2022-12-11T04:25:06.038Z,15.13
2022-12-11T04:27:50.804Z,15.77
2022-12-11T04:30:21.619Z,15.77
2022-12-11T04:32:48.494Z,15.00
2022-12-11T04:35:15.272Z,14.98
2022-12-11T04:37:42.073Z,15.50
2022-12-11T04:40:09.962Z,15.13
2022-12-11T04:42:36.383Z,15.10
2022-12-11T04:45:03.411Z,15.15
2022-12-11T04:47:29.763Z,15.48
2022-12-11T04:49:56.187Z,14.95
2022-12-11T04:52:22.591Z,15.07
2022-12-11T04:54:48.984Z,15.25
2022-12-11T04:57:15.466Z,15.38
2022-12-11T04:59:41.836Z,14.30
2022-12-11T05:02:08.193Z,15.45
2022-12-11T05:04:35.188Z,15.02
2022-12-11T05:07:01.956Z,14.75
2022-12-11T05:09:28.560Z,14.77
2022-12-11T05:11:55.011Z,15.25
2022-12-11T05:14:21.440Z,14.23
2022-12-11T05:16:47.954Z,14.00
2022-12-11T05:19:14.431Z,14.55
2022-12-11T05:21:40.856Z,14.95
2022-12-11T05:24:07.363Z,14.70
2022-12-11T05:26:33.763Z,14.75
2022-12-11T05:29:00.142Z,15.23
2022-12-11T05:31:27.222Z,14.85
2022-12-11T05:33:54.506Z,14.45
2022-12-11T05:36:22.196Z,13.82
2022-12-11T05:38:48.615Z,14.75
2022-12-11T05:41:16.447Z,14.05
2022-12-11T05:43:43.083Z,14.75
2022-12-11T05:46:13.960Z,14.07
2022-12-11T05:48:41.284Z,14.85
2022-12-11T05:51:08.413Z,14.40
2022-12-11T05:53:35.687Z,15.23
2022-12-11T05:56:03.168Z,15.20
2022-12-11T05:58:29.681Z,13.73
2022-12-11T06:00:56.085Z,14.50
2022-12-11T06:03:22.465Z,13.70
2022-12-11T06:05:49.385Z,14.57
2022-12-11T06:08:15.847Z,14.40
2022-12-11T06:10:49.219Z,15.15
2022-12-11T06:13:15.987Z,14.55
2022-12-11T06:15:42.388Z,15.18
2022-12-11T06:18:08.776Z,14.43
2022-12-11T06:20:35.381Z,13.65
2022-12-11T06:23:02.014Z,15.65
2022-12-11T06:25:28.609Z,14.68
2022-12-11T06:27:55.085Z,14.15
2022-12-11T06:30:21.644Z,14.60
2022-12-11T06:32:48.462Z,15.50
2022-12-11T06:35:14.967Z,15.02
2022-12-11T06:37:41.392Z,14.43
2022-12-11T06:40:08.776Z,14.77
2022-12-11T06:42:35.436Z,14.35
2022-12-11T06:45:01.809Z,15.80
2022-12-11T06:47:31.376Z,13.73
2022-12-11T06:49:57.823Z,15.10
2022-12-11T06:52:24.598Z,15.38
2022-12-11T06:54:51.000Z,14.48
2022-12-11T06:57:17.782Z,14.57
2022-12-11T06:59:44.151Z,14.75
2022-12-11T07:02:14.738Z,15.00
2022-12-11T07:04:41.347Z,16.48
2022-12-11T07:07:08.203Z,16.27
2022-12-11T07:09:35.095Z,15.00
2022-12-11T07:12:01.528Z,15.68
2022-12-11T07:14:27.922Z,14.23
2022-12-11T07:16:54.606Z,15.13
2022-12-11T07:19:21.047Z,16.15
2022-12-11T07:21:47.425Z,15.52
2022-12-11T07:24:13.817Z,15.32
2022-12-11T07:26:40.275Z,15.90
2022-12-11T07:29:06.711Z,16.35
2022-12-11T07:31:33.178Z,16.77
2022-12-11T07:34:01.001Z,16.38
2022-12-11T07:36:28.272Z,14.70
2022-12-11T07:38:54.704Z,16.08
2022-12-11T07:41:21.468Z,15.45
2022-12-11T07:43:47.884Z,15.15
2022-12-11T07:46:15.692Z,14.95
2022-12-11T07:48:43.748Z,15.60
2022-12-11T07:51:10.155Z,15.90
2022-12-11T07:53:36.533Z,15.50
2022-12-11T07:56:03.426Z,16.00
2022-12-11T07:58:29.864Z,16.38
2022-12-11T08:00:56.296Z,17.83
2022-12-11T08:03:22.730Z,16.02
2022-12-11T08:05:49.934Z,14.73
2022-12-11T08:08:16.639Z,14.53
2022-12-11T08:10:43.169Z,15.90
2022-12-11T08:13:09.586Z,14.32
2022-12-11T08:15:36.035Z,14.60
2022-12-11T08:18:02.499Z,15.57
2022-12-11T08:20:28.929Z,16.48
2022-12-11T08:22:59.166Z,16.67
2022-12-11T08:25:27.061Z,14.40
2022-12-11T08:27:53.448Z,15.40
2022-12-11T08:30:19.828Z,14.48
2022-12-11T08:32:46.298Z,14.02
2022-12-11T08:35:12.859Z,14.32
2022-12-11T08:37:40.214Z,12.85
2022-12-11T08:40:07.092Z,13.67
2022-12-11T08:42:33.507Z,13.20
2022-12-11T08:44:59.859Z,12.85
2022-12-11T08:47:26.434Z,13.38
2022-12-11T08:49:52.875Z,13.98
2022-12-11T08:52:19.237Z,13.93
2022-12-11T08:54:45.642Z,14.10
2022-12-11T08:57:12.056Z,13.20
2022-12-11T08:59:38.417Z,13.18
2022-12-11T09:02:04.788Z,12.82
2022-12-11T09:04:31.158Z,13.40
2022-12-11T09:06:57.572Z,13.63
2022-12-11T09:09:23.965Z,14.65
2022-12-11T09:11:50.338Z,15.07
2022-12-11T09:14:16.862Z,16.30
2022-12-11T09:16:43.250Z,16.85
2022-12-11T09:19:12.811Z,16.20
2022-12-11T09:21:39.270Z,16.27
2022-12-11T09:24:05.819Z,15.25
2022-12-11T09:26:32.397Z,16.48
2022-12-11T09:28:58.853Z,17.35
2022-12-11T09:31:25.200Z,16.77
2022-12-11T09:33:53.908Z,15.43
2022-12-11T09:36:20.314Z,15.82
2022-12-11T09:38:46.756Z,16.52
2022-12-11T09:41:16.151Z,15.73
2022-12-11T09:43:46.314Z,15.80
2022-12-11T09:46:14.053Z,16.02
2022-12-11T09:48:42.868Z,16.15
2022-12-11T09:51:27.018Z,15.82
2022-12-11T09:53:55.170Z,42.33
2022-12-11T09:56:21.514Z,16.73
2022-12-11T09:58:50.706Z,19.65
2022-12-11T10:01:22.360Z,26.38
2022-12-11T10:03:59.548Z,33.08
2022-12-11T10:06:31.128Z,26.23
2022-12-11T10:09:11.443Z,82.05
2022-12-11T10:11:56.073Z,55.38
2022-12-11T10:14:32.723Z,43.40
2022-12-11T10:17:13.980Z,27.60
2022-12-11T10:19:41.076Z,24.50
2022-12-11T10:22:14.348Z,28.90
2022-12-11T10:25:09.887Z,15.32
2022-12-11T10:27:33.558Z,13.75
2022-12-11T10:30:18.327Z,12.85
2022-12-11T10:32:50.823Z,13.32
2022-12-11T10:35:27.061Z,13.05
2022-12-11T10:37:56.820Z,27.05
2022-12-11T10:40:24.359Z,14.43
2022-12-11T10:42:54.605Z,13.00
2022-12-11T10:45:21.080Z,17.30
2022-12-11T10:47:47.434Z,14.60
2022-12-11T10:50:24.303Z,20.83
2022-12-11T10:52:50.859Z,27.17
2022-12-11T10:55:34.988Z,14.68
2022-12-11T10:58:03.159Z,13.75
2022-12-11T11:00:31.937Z,15.10
2022-12-11T11:02:58.868Z,14.15
2022-12-11T11:05:30.719Z,14.90
2022-12-11T11:08:23.837Z,13.82
2022-12-11T11:10:54.764Z,15.45
2022-12-11T11:13:22.388Z,20.52
2022-12-11T11:15:49.126Z,20.08
2022-12-11T11:18:21.455Z,17.08
2022-12-11T11:20:48.468Z,22.40
2022-12-11T11:23:15.903Z,24.42
2022-12-11T11:25:50.130Z,23.23
2022-12-11T11:28:21.754Z,16.08
2022-12-11T11:30:59.488Z,16.30
2022-12-11T11:33:26.090Z,15.45
2022-12-11T11:35:56.687Z,16.40
2022-12-11T11:38:25.354Z,17.05
2022-12-11T11:41:02.542Z,16.67
2022-12-11T11:43:38.683Z,17.40
2022-12-11T11:46:12.176Z,21.08
2022-12-11T11:48:57.111Z,21.25
2022-12-11T11:51:34.932Z,19.08
2022-12-11T11:54:03.125Z,18.33
2022-12-11T11:56:34.991Z,21.45
2022-12-11T11:59:20.113Z,17.38
2022-12-11T12:01:46.598Z,17.48
2022-12-11T12:04:13.441Z,16.55
2022-12-11T12:06:50.927Z,17.35
2022-12-11T12:09:34.495Z,17.88
2022-12-11T12:12:26.403Z,22.67
2022-12-11T12:14:57.861Z,19.42
2022-12-11T12:17:44.571Z,22.70
2022-12-11T12:20:20.821Z,43.60
2022-12-11T12:23:00.374Z,26.75
2022-12-11T12:25:29.541Z,27.58
2022-12-11T12:27:59.716Z,24.10
2022-12-11T12:30:26.941Z,20.13
2022-12-11T12:33:12.217Z,19.30
2022-12-11T12:35:44.607Z,18.80
2022-12-11T12:38:23.155Z,19.67
2022-12-11T12:40:52.463Z,19.58
2022-12-11T12:43:34.689Z,44.33
2022-12-11T12:46:01.170Z,26.67
2022-12-11T12:48:27.942Z,21.08
2022-12-11T12:50:55.800Z,19.45
2022-12-11T12:53:27.116Z,16.38
2022-12-11T12:55:53.769Z,17.20
2022-12-11T12:58:27.955Z,18.95
2022-12-11T13:00:55.012Z,30.17
2022-12-11T13:03:29.888Z,37.87
2022-12-11T13:06:01.099Z,27.23
2022-12-11T13:08:41.766Z,19.65
2022-12-11T13:11:12.129Z,18.40
2022-12-11T13:13:43.249Z,17.42
2022-12-11T13:16:15.496Z,17.90
2022-12-11T13:18:43.214Z,17.92
2022-12-11T13:21:25.308Z,20.52
2022-12-11T13:23:51.892Z,19.27
2022-12-11T13:26:29.078Z,23.17
2022-12-11T13:28:55.480Z,22.33
2022-12-11T13:31:22.933Z,24.27
2022-12-11T13:33:50.866Z,19.20
2022-12-11T13:36:24.368Z,16.88
2022-12-11T13:38:58.753Z,17.25
2022-12-11T13:41:25.212Z,24.15
2022-12-11T13:43:52.359Z,21.52
2022-12-11T13:46:27.202Z,20.63
2022-12-11T13:48:57.168Z,25.90
2022-12-11T13:51:25.081Z,20.58
2022-12-11T13:54:06.552Z,22.02
2022-12-11T13:56:32.999Z,20.67
2022-12-11T13:58:59.358Z,20.80
2022-12-11T14:01:33.381Z,20.13
2022-12-11T14:04:12.370Z,23.05
2022-12-11T14:06:39.008Z,39.05
2022-12-11T14:09:06.918Z,29.88
2022-12-11T14:11:37.740Z,29.90
2022-12-11T14:14:05.948Z,41.50
2022-12-11T14:16:32.654Z,49.03
2022-12-11T14:19:04.171Z,50.60
2022-12-11T14:21:31.004Z,36.55
2022-12-11T14:23:58.355Z,29.00
2022-12-11T14:26:26.118Z,35.67
2022-12-11T14:28:52.969Z,31.50
2022-12-11T14:31:26.551Z,48.83
2022-12-11T14:33:55.152Z,42.47
2022-12-11T14:36:22.751Z,42.45
2022-12-11T14:39:01.179Z,39.83
2022-12-11T14:41:45.860Z,41.45
2022-12-11T14:44:16.918Z,25.45
2022-12-11T14:46:51.211Z,31.08
2022-12-11T14:49:37.891Z,29.65
2022-12-11T14:52:04.924Z,27.25
2022-12-11T14:54:31.266Z,25.17
2022-12-11T14:56:58.871Z,24.83
2022-12-11T14:59:31.633Z,24.30
2022-12-11T15:01:59.892Z,25.30
2022-12-11T15:04:30.597Z,24.20
2022-12-11T15:06:57.628Z,27.02
2022-12-11T15:09:29.380Z,24.25
2022-12-11T15:11:57.331Z,24.60
2022-12-11T15:14:24.347Z,25.70
2022-12-11T15:16:51.646Z,24.17
2022-12-11T15:19:23.447Z,25.02
2022-12-11T15:21:50.256Z,27.58
2022-12-11T15:24:28.181Z,28.20
2022-12-11T15:29:27.359Z,25.80
2022-12-11T15:32:01.030Z,27.33
2022-12-11T15:34:31.969Z,28.35
2022-12-11T15:36:58.372Z,31.00
2022-12-11T15:39:24.741Z,31.48
2022-12-11T15:41:51.171Z,25.40
2022-12-11T15:44:19.212Z,24.08
2022-12-11T15:49:15.212Z,25.33
2022-12-11T15:51:43.420Z,26.40
2022-12-11T15:54:09.957Z,26.02
2022-12-11T15:56:36.336Z,26.20
2022-12-11T15:59:04.524Z,26.83
2022-12-11T16:01:30.938Z,27.85
2022-12-11T16:04:01.691Z,27.15
2022-12-11T16:06:31.008Z,26.55
2022-12-11T16:08:57.371Z,27.35
2022-12-11T16:11:23.787Z,27.35
2022-12-11T16:13:50.461Z,29.48
2022-12-11T16:16:16.836Z,28.27
2022-12-11T16:18:43.251Z,27.13
2022-12-11T16:21:09.707Z,24.83
2022-12-11T16:23:36.088Z,24.90
2022-12-11T16:26:06.541Z,27.55
2022-12-11T16:28:32.926Z,35.47
2022-12-11T16:30:59.399Z,45.53
2022-12-11T16:33:25.835Z,32.88
2022-12-11T16:35:52.204Z,33.58
2022-12-11T16:38:18.574Z,30.38
2022-12-11T16:40:45.524Z,33.28
2022-12-11T16:43:11.931Z,32.70
2022-12-11T16:45:38.311Z,30.20
2022-12-11T16:48:05.343Z,35.30
2022-12-11T16:50:32.456Z,33.83
2022-12-11T16:52:59.104Z,29.60
2022-12-11T16:55:25.531Z,27.55
2022-12-11T16:57:51.870Z,25.35
2022-12-11T17:00:18.325Z,27.63
2022-12-11T17:02:44.828Z,29.73
2022-12-11T17:05:11.540Z,27.23
2022-12-11T17:07:38.084Z,25.15
2022-12-11T17:10:04.914Z,29.60
2022-12-11T17:12:31.458Z,29.17
2022-12-11T17:14:57.927Z,29.65
2022-12-11T17:17:24.867Z,26.33
2022-12-11T17:19:51.287Z,27.95
2022-12-11T17:22:17.747Z,51.50
2022-12-11T17:24:44.157Z,54.95
2022-12-11T17:27:10.544Z,73.65
2022-12-11T17:29:36.918Z,57.00
2022-12-11T17:32:03.449Z,37.33
2022-12-11T17:34:36.063Z,32.60
2022-12-11T17:37:04.104Z,30.98
2022-12-11T17:39:30.631Z,46.70
2022-12-11T17:41:57.035Z,99.55
2022-12-11T17:44:23.547Z,49.22
2022-12-11T17:46:50.254Z,33.78
2022-12-11T17:49:16.730Z,28.30
2022-12-11T17:51:43.284Z,24.33
2022-12-11T17:54:09.648Z,23.75
2022-12-11T17:56:36.315Z,30.90
2022-12-11T17:59:03.038Z,30.40
2022-12-11T18:01:29.464Z,28.00
2022-12-11T18:03:56.784Z,26.13
2022-12-11T18:06:23.274Z,22.20
2022-12-11T18:08:49.687Z,21.98
2022-12-11T18:11:17.889Z,21.65
2022-12-11T18:13:44.867Z,21.58
2022-12-11T18:16:12.758Z,22.65
2022-12-11T18:18:39.476Z,19.30
2022-12-11T18:21:06.081Z,19.92
2022-12-11T18:23:32.783Z,29.42
2022-12-11T18:29:20.902Z,23.30
2022-12-11T18:31:47.288Z,25.75
2022-12-11T18:34:13.702Z,20.38
2022-12-11T18:36:40.816Z,22.15
2022-12-11T18:39:07.248Z,24.43
2022-12-11T18:41:33.624Z,22.08
2022-12-11T18:44:05.173Z,20.70
2022-12-11T18:46:34.531Z,20.05
2022-12-11T18:49:00.932Z,24.58
2022-12-11T18:51:27.367Z,21.15
2022-12-11T18:53:53.813Z,23.02
2022-12-11T18:56:20.831Z,30.17
2022-12-11T18:58:47.591Z,27.13
2022-12-11T19:01:21.655Z,25.00
2022-12-11T19:03:48.404Z,22.23
2022-12-11T19:06:17.520Z,18.92
2022-12-11T19:08:44.197Z,19.98
2022-12-11T19:11:14.077Z,21.55
2022-12-11T19:13:40.486Z,21.23
2022-12-11T19:16:07.168Z,21.02
2022-12-11T19:18:33.615Z,20.05
2022-12-11T19:21:08.321Z,20.60
2022-12-11T19:23:35.392Z,19.25
2022-12-11T19:26:02.408Z,20.90
2022-12-11T19:28:28.841Z,21.33
2022-12-11T19:30:55.314Z,23.17
2022-12-11T19:33:21.966Z,23.17
2022-12-11T19:35:48.365Z,23.38
2022-12-11T19:38:14.821Z,21.02
2022-12-11T19:40:42.045Z,21.33
2022-12-11T19:43:08.657Z,22.43
2022-12-11T19:45:35.093Z,22.95
2022-12-11T19:48:01.792Z,24.60
2022-12-11T19:50:28.257Z,21.13
2022-12-11T19:52:54.698Z,21.65
2022-12-11T19:55:21.662Z,21.55
2022-12-11T19:57:48.080Z,25.38
2022-12-11T20:00:14.735Z,30.80
2022-12-11T20:02:41.121Z,32.33
2022-12-11T20:05:08.162Z,32.10
2022-12-11T20:07:34.550Z,45.65
2022-12-11T20:10:00.957Z,39.20
2022-12-11T20:12:28.536Z,37.05
2022-12-11T20:14:54.902Z,36.80
2022-12-11T20:17:21.373Z,30.85
2022-12-11T20:19:47.769Z,36.90
2022-12-11T20:22:14.184Z,38.00
2022-12-11T20:24:40.603Z,33.03
2022-12-11T20:27:07.027Z,29.60
2022-12-11T20:29:33.446Z,35.55
2022-12-11T20:32:00.497Z,47.60
2022-12-11T20:34:27.123Z,43.83
2022-12-11T20:36:54.419Z,40.20
2022-12-11T20:39:20.885Z,50.35
2022-12-11T20:41:47.271Z,33.45
2022-12-11T20:44:13.751Z,31.23
2022-12-11T20:46:40.832Z,33.20
2022-12-11T20:49:12.737Z,37.28
2022-12-11T20:51:40.068Z,44.92
2022-12-11T20:54:06.561Z,39.90
2022-12-11T20:56:32.984Z,34.25
2022-12-11T20:59:00.066Z,44.25
2022-12-11T21:01:27.460Z,42.20
2022-12-11T21:03:54.442Z,29.58
2022-12-11T21:06:25.928Z,28.83
2022-12-11T21:08:52.859Z,30.95
2022-12-11T21:11:19.279Z,27.40
2022-12-11T21:13:45.766Z,26.48
2022-12-11T21:16:12.295Z,27.77
2022-12-11T21:18:39.873Z,28.35
2022-12-11T21:21:06.621Z,26.55
2022-12-11T21:23:33.337Z,28.73
2022-12-11T21:25:59.752Z,28.80
2022-12-11T21:28:30.551Z,30.00
2022-12-11T21:31:04.313Z,30.65
2022-12-11T21:33:30.779Z,29.58
2022-12-11T21:35:57.754Z,28.20
2022-12-11T21:38:24.184Z,27.40
2022-12-11T21:40:51.401Z,26.88
2022-12-11T21:43:17.878Z,30.47
2022-12-11T21:46:03.647Z,30.77
2022-12-11T21:48:30.395Z,27.67
2022-12-11T21:51:04.269Z,27.85
2022-12-11T21:53:30.826Z,26.25
2022-12-11T21:55:57.173Z,25.23
2022-12-11T21:58:23.596Z,22.80
2022-12-11T22:00:50.019Z,22.40
2022-12-11T22:03:16.400Z,21.90
2022-12-11T22:05:42.794Z,21.63
2022-12-11T22:08:09.261Z,22.15
2022-12-11T22:10:35.683Z,20.98
2022-12-11T22:13:02.252Z,18.75
2022-12-11T22:15:28.635Z,18.92
2022-12-11T22:17:55.011Z,17.80
2022-12-11T22:20:21.346Z,17.63
2022-12-11T22:22:47.822Z,17.52
2022-12-11T22:25:14.506Z,15.73
2022-12-11T22:27:41.114Z,12.57
2022-12-11T22:30:07.775Z,14.40
2022-12-11T22:32:34.163Z,14.52
2022-12-11T22:35:00.578Z,17.70
2022-12-11T22:37:26.972Z,15.52
2022-12-11T22:39:53.348Z,15.13
2022-12-11T22:42:19.750Z,13.55
2022-12-11T22:44:46.184Z,16.75
2022-12-11T22:47:12.935Z,25.20
2022-12-11T22:49:39.442Z,23.30
2022-12-11T22:52:05.929Z,19.38
2022-12-11T22:54:32.296Z,19.45
2022-12-11T22:56:58.714Z,19.67
2022-12-11T22:59:25.070Z,19.20
2022-12-11T23:01:51.546Z,18.52
2022-12-11T23:04:17.907Z,18.70
2022-12-11T23:06:44.266Z,18.48
2022-12-11T23:09:10.642Z,15.80
2022-12-11T23:11:37.590Z,17.00
2022-12-11T23:14:05.220Z,20.05
2022-12-11T23:16:32.126Z,18.90
2022-12-11T23:18:58.658Z,20.27
2022-12-11T23:21:25.541Z,18.67
2022-12-11T23:23:52.211Z,18.90
2022-12-11T23:26:19.226Z,17.52
2022-12-11T23:28:46.218Z,14.30
2022-12-11T23:31:13.122Z,18.13
2022-12-11T23:33:39.815Z,33.55
2022-12-11T23:36:06.404Z,16.20
2022-12-11T23:38:32.794Z,16.88
2022-12-11T23:41:00.563Z,16.85
2022-12-11T23:43:27.010Z,18.10
2022-12-11T23:45:53.495Z,18.70
2022-12-11T23:48:19.938Z,18.25
2022-12-11T23:50:46.339Z,19.25
2022-12-11T23:53:12.707Z,17.75
2022-12-11T23:55:40.284Z,17.15
2022-12-11T23:58:06.764Z,17.08
